Time;durP1;ratioP1;P1;durP2;ratioP2;P2;SDS_P1;SDS_P2;PMS_P1;PMS_P2;Temp;Humidity;BMP_temperature;BMP_pressure;BME280_temperature;BME280_humidity;BME280_pressure;Samples;Min_cycle;Max_cycle;Signal;HPM_P1;HPM_P2
2023/06/18 00:00:54;;;;;;;14.25;12.75;;;;;;;19.79;64.90;99951.88;5134435;27;20673;-67
2023/06/18 00:03:22;;;;;;;14.00;12.60;;;;;;;19.76;64.89;99955.50;5134691;27;20268;-67
2023/06/18 00:05:53;;;;;;;14.60;13.18;;;;;;;19.74;65.06;99949.50;5134836;27;20203;-66
2023/06/18 00:08:21;;;;;;;13.38;12.02;;;;;;;19.75;65.15;99956.44;5134207;27;20199;-67
2023/06/18 00:10:49;;;;;;;16.02;14.43;;;;;;;19.71;65.28;99949.66;5139951;27;20199;-67
2023/06/18 00:13:17;;;;;;;16.33;14.73;;;;;;;19.67;65.37;99958.59;5136060;27;20205;-66
2023/06/18 00:15:44;;;;;;;16.30;14.80;;;;;;;19.63;65.36;99967.50;5134187;27;20204;-68
2023/06/18 00:18:12;;;;;;;18.45;16.65;;;;;;;19.54;65.52;99952.25;5134222;27;20256;-66
2023/06/18 00:20:40;;;;;;;19.30;17.25;;;;;;;19.47;65.78;99969.16;5134116;27;20199;-67
2023/06/18 00:23:10;;;;;;;20.25;18.25;;;;;;;19.37;65.93;99965.28;5134044;27;20199;-67
2023/06/18 00:25:38;;;;;;;21.35;19.35;;;;;;;19.34;66.20;99970.69;5134044;27;20199;-66
2023/06/18 00:28:06;;;;;;;18.70;16.83;;;;;;;19.30;65.97;99968.22;5134008;27;20585;-66
2023/06/18 00:30:36;;;;;;;19.52;17.63;;;;;;;19.27;66.02;99963.16;5137561;27;20295;-67
2023/06/18 00:33:05;;;;;;;18.63;16.73;;;;;;;19.26;66.52;99958.84;5133773;27;20283;-67
2023/06/18 00:35:34;;;;;;;19.10;17.40;;;;;;;19.27;66.40;99963.16;5133721;27;20203;-67
2023/06/18 00:38:02;;;;;;;17.13;15.40;;;;;;;19.27;66.27;99960.53;5133571;27;20211;-66
2023/06/18 00:40:33;;;;;;;17.98;16.15;;;;;;;19.28;66.26;99971.81;5134055;27;20542;-66
2023/06/18 00:43:03;;;;;;;16.85;15.05;;;;;;;19.23;66.65;99964.22;5132139;27;20248;-66
2023/06/18 00:45:31;;;;;;;17.20;14.90;;;;;;;19.17;66.91;99974.94;5132885;27;20219;-68
2023/06/18 00:47:59;;;;;;;17.25;15.65;;;;;;;19.15;67.29;99979.41;5133363;27;20195;-66
2023/06/18 00:50:32;;;;;;;17.58;15.80;;;;;;;19.14;67.38;99963.81;5133726;27;20255;-67
2023/06/18 00:53:00;;;;;;;18.17;16.30;;;;;;;19.15;67.37;99971.59;5133815;27;20542;-68
2023/06/18 00:55:30;;;;;;;16.85;15.23;;;;;;;19.14;67.68;99975.09;5133873;27;20637;-68
2023/06/18 00:58:03;;;;;;;16.85;15.07;;;;;;;19.14;67.66;99972.47;5132951;27;20283;-67
2023/06/18 01:00:32;;;;;;;16.35;14.65;;;;;;;19.14;67.69;99971.63;5120051;27;20195;-67
2023/06/18 01:03:02;;;;;;;16.90;15.23;;;;;;;19.15;67.81;99968.13;5137973;27;20202;-68
2023/06/18 01:05:32;;;;;;;17.10;15.35;;;;;;;19.14;67.87;99971.63;5133552;27;20650;-67
2023/06/18 01:08:06;;;;;;;18.02;16.27;;;;;;;19.13;68.10;99978.63;5131883;27;20211;-67
2023/06/18 01:10:38;;;;;;;19.20;17.23;;;;;;;19.13;67.76;99975.19;5133303;27;20600;-67
2023/06/18 01:13:10;;;;;;;18.35;16.65;;;;;;;19.15;67.89;99979.41;5133088;27;20239;-66
2023/06/18 01:15:38;;;;;;;18.25;16.45;;;;;;;19.15;67.69;99976.81;5132561;27;20195;-67
2023/06/18 01:18:08;;;;;;;17.88;15.93;;;;;;;19.18;67.84;99973.19;5132673;27;20294;-66
2023/06/18 01:20:40;;;;;;;18.13;16.45;;;;;;;19.17;67.85;99980.16;5145330;27;20264;-67
2023/06/18 01:23:17;;;;;;;18.85;16.95;;;;;;;19.14;67.97;99969.88;5133147;27;20225;-67
2023/06/18 01:25:47;;;;;;;18.30;16.45;;;;;;;19.13;68.01;99973.41;5132966;27;20723;-68
2023/06/18 01:28:16;;;;;;;18.42;16.73;;;;;;;19.10;67.99;99967.47;5132859;27;20787;-66
2023/06/18 01:30:44;;;;;;;18.27;16.48;;;;;;;19.04;68.17;99968.63;5133171;27;20282;-66
2023/06/18 01:33:13;;;;;;;18.30;16.60;;;;;;;19.01;68.51;99974.00;5132778;27;20199;-66
2023/06/18 01:35:41;;;;;;;19.27;17.42;;;;;;;18.99;68.59;99974.06;5134206;27;20638;-67
2023/06/18 01:38:25;;;;;;;18.83;16.17;;;;;;;19.02;68.73;99970.47;5131656;27;20267;-67
2023/06/18 01:40:57;;;;;;;19.02;17.20;;;;;;;19.04;68.77;99979.09;5132708;27;20203;-67
2023/06/18 01:43:34;;;;;;;17.98;16.27;;;;;;;19.05;68.59;99976.38;5118625;27;20672;-67
2023/06/18 01:46:05;;;;;;;18.75;16.98;;;;;;;19.05;68.38;99975.53;5132523;27;20730;-65
2023/06/18 01:48:36;;;;;;;18.67;16.85;;;;;;;19.03;68.85;99974.75;5118281;27;20278;-66
2023/06/18 01:51:06;;;;;;;19.30;17.42;;;;;;;18.97;68.92;99977.69;5132027;27;20199;-67
2023/06/18 01:53:36;;;;;;;18.25;16.23;;;;;;;18.93;69.13;99978.75;5136660;27;20654;-67
2023/06/18 01:56:04;;;;;;;17.80;16.00;;;;;;;18.90;69.07;99978.88;5132280;27;20199;-67
2023/06/18 01:58:36;;;;;;;17.38;15.77;;;;;;;18.91;69.23;99977.97;5131333;27;20317;-67
2023/06/18 02:01:04;;;;;;;18.55;16.75;;;;;;;18.91;69.51;99977.97;5132715;27;20267;-66
2023/06/18 02:03:32;;;;;;;17.88;16.15;;;;;;;18.99;69.56;99981.06;5132240;27;20199;-67
2023/06/18 02:06:00;;;;;;;17.85;16.02;;;;;;;19.02;69.47;99991.34;5132305;27;20207;-67
2023/06/18 02:08:28;;;;;;;17.40;15.70;;;;;;;19.04;69.50;99990.38;5131018;27;20642;-67
2023/06/18 02:10:56;;;;;;;18.02;16.23;;;;;;;19.04;69.32;99989.53;5132432;27;20592;-65
2023/06/18 02:13:24;;;;;;;17.75;16.00;;;;;;;19.00;69.48;99987.97;5132247;27;20693;-66
2023/06/18 02:15:59;;;;;;;17.60;15.90;;;;;;;19.01;69.67;99981.84;5132085;27;20195;-67
2023/06/18 02:18:27;;;;;;;17.90;16.00;;;;;;;18.97;69.55;99985.50;5131910;27;20362;-67
2023/06/18 02:20:55;;;;;;;17.13;15.43;;;;;;;18.96;69.91;99986.41;5132219;27;20206;-66
2023/06/18 02:23:23;;;;;;;17.50;15.70;;;;;;;18.97;69.84;99985.50;5131968;27;20209;-66
2023/06/18 02:25:51;;;;;;;18.20;15.77;;;;;;;18.95;70.00;99979.50;5129704;27;20209;-66
2023/06/18 02:28:19;;;;;;;17.90;16.00;;;;;;;18.94;69.93;99988.28;5129851;27;20223;-66
2023/06/18 02:30:47;;;;;;;18.23;16.35;;;;;;;18.93;70.24;99983.97;5132204;28;20205;-66
2023/06/18 02:33:18;;;;;;;18.65;16.55;;;;;;;18.90;70.17;99989.34;5132045;28;20199;-67
2023/06/18 02:35:46;;;;;;;17.08;15.48;;;;;;;18.87;70.03;99982.47;5131687;28;20203;-67
2023/06/18 02:38:14;;;;;;;18.73;16.73;;;;;;;18.90;70.25;99992.78;5131447;28;20219;-66
2023/06/18 02:40:42;;;;;;;17.80;15.98;;;;;;;18.93;70.27;99995.25;5130354;27;20252;-71
2023/06/18 02:43:10;;;;;;;17.10;15.40;;;;;;;18.97;69.96;100002.03;5129857;28;20197;-72
2023/06/18 02:45:38;;;;;;;19.23;17.23;;;;;;;18.99;69.94;99996.72;5132126;28;20195;-71
2023/06/18 02:48:06;;;;;;;16.58;15.07;;;;;;;19.05;69.98;100005.13;5131244;28;20206;-73
2023/06/18 02:50:36;;;;;;;19.83;16.30;;;;;;;19.07;69.84;99999.81;5132113;28;20614;-72
2023/06/18 02:53:04;;;;;;;18.63;16.83;;;;;;;19.11;69.70;100001.38;5131906;28;20210;-72
2023/06/18 02:55:32;;;;;;;17.17;15.38;;;;;;;19.12;69.49;100015.28;5131753;28;20210;-71
2023/06/18 02:58:00;;;;;;;17.80;15.88;;;;;;;19.11;69.61;100006.59;5130453;27;20230;-71
2023/06/18 03:00:28;;;;;;;18.30;16.48;;;;;;;19.12;69.94;100013.50;5143319;27;20203;-71
2023/06/18 03:02:56;;;;;;;19.05;17.13;;;;;;;19.12;69.60;100004.84;5132019;28;20199;-71
2023/06/18 03:05:23;;;;;;;18.00;16.20;;;;;;;19.11;69.87;100011.84;5131884;28;20562;-72
2023/06/18 03:07:53;;;;;;;16.90;15.30;;;;;;;19.10;69.61;100010.13;5131339;28;20653;-71
2023/06/18 03:10:21;;;;;;;18.45;16.40;;;;;;;19.11;69.72;100011.84;5132821;27;20203;-72
2023/06/18 03:12:49;;;;;;;18.92;16.20;;;;;;;19.11;69.44;100011.84;5135991;27;20592;-71
2023/06/18 03:15:17;;;;;;;17.98;16.10;;;;;;;19.07;69.57;100010.25;5142412;27;20254;-70
2023/06/18 03:17:45;;;;;;;21.77;16.90;;;;;;;19.04;69.72;100007.81;5135524;27;20215;-72
2023/06/18 03:20:15;;;;;;;20.42;17.95;;;;;;;19.10;69.55;100009.28;5135658;27;20210;-70
2023/06/18 03:22:43;;;;;;;18.40;16.52;;;;;;;19.10;69.46;100007.50;5135366;27;20210;-70
2023/06/18 03:25:12;;;;;;;18.98;17.17;;;;;;;19.10;69.72;100017.94;5135098;27;20260;-71
2023/06/18 03:27:40;;;;;;;19.67;17.35;;;;;;;19.11;69.71;100006.59;5134278;27;20227;-71
2023/06/18 03:30:09;;;;;;;18.23;16.27;;;;;;;19.11;69.81;100001.38;5134696;27;20205;-72
2023/06/18 03:32:37;;;;;;;18.85;16.90;;;;;;;19.15;69.60;100015.16;5128810;27;20331;-70
2023/06/18 03:35:06;;;;;;;18.95;15.85;;;;;;;19.16;69.34;100015.06;5135173;27;20582;-71
2023/06/18 03:37:34;;;;;;;18.80;16.90;;;;;;;19.18;69.48;100021.03;5134536;27;20643;-72
2023/06/18 03:40:04;;;;;;;20.73;15.98;;;;;;;19.18;69.59;100023.66;5134279;27;20203;-72
2023/06/18 03:42:33;;;;;;;18.30;16.50;;;;;;;19.26;69.67;100020.69;5135355;27;20286;-72
2023/06/18 03:45:01;;;;;;;17.73;15.93;;;;;;;19.26;69.47;100018.09;5135128;27;20207;-71
2023/06/18 03:47:29;;;;;;;17.63;15.50;;;;;;;19.31;69.52;100023.94;5136699;27;20199;-71
2023/06/18 03:49:57;;;;;;;17.58;15.77;;;;;;;19.34;69.30;100025.56;5136884;27;20242;-71
2023/06/18 03:52:25;;;;;;;18.05;16.25;;;;;;;19.40;69.51;100022.63;5134921;27;20203;-71
2023/06/18 03:54:53;;;;;;;17.08;15.43;;;;;;;19.46;69.66;100022.34;5134725;27;20201;-72
2023/06/18 03:57:21;;;;;;;16.70;15.18;;;;;;;19.51;68.97;100026.44;5133890;27;20229;-70
2023/06/18 03:59:51;;;;;;;17.48;15.68;;;;;;;19.57;68.94;100025.28;5134543;27;20226;-71
2023/06/18 04:02:19;;;;;;;17.40;15.60;;;;;;;19.61;68.75;100026.81;5135066;27;20559;-71
2023/06/18 04:04:48;;;;;;;17.45;15.75;;;;;;;19.59;68.54;100018.22;5136621;27;20199;-71
2023/06/18 04:07:15;;;;;;;17.77;16.08;;;;;;;19.58;68.53;100031.34;5132405;27;20206;-71
2023/06/18 04:09:43;;;;;;;17.55;15.95;;;;;;;19.55;68.94;100027.09;5134490;27;20234;-71
2023/06/18 04:12:11;;;;;;;18.20;16.25;;;;;;;19.53;68.69;100039.41;5134241;27;20217;-72
2023/06/18 04:14:39;;;;;;;18.13;16.25;;;;;;;19.50;68.84;100039.56;5134366;27;20234;-72
2023/06/18 04:17:09;;;;;;;17.75;15.90;;;;;;;19.49;68.49;100045.72;5134141;27;20241;-72
2023/06/18 04:19:37;;;;;;;21.33;19.05;;;;;;;19.46;68.55;100048.47;5134498;27;20575;-71
2023/06/18 04:22:06;;;;;;;22.13;19.88;;;;;;;19.44;68.78;100040.72;5133929;27;20207;-71
2023/06/18 04:24:34;;;;;;;17.58;15.57;;;;;;;19.43;68.88;100043.38;5137880;27;20210;-70
2023/06/18 04:27:02;;;;;;;18.55;16.63;;;;;;;19.39;68.61;100042.69;5131638;27;20331;-70
2023/06/18 04:29:30;;;;;;;18.80;17.00;;;;;;;19.36;68.74;100052.44;5133695;27;20237;-72
2023/06/18 04:31:58;;;;;;;19.00;17.00;;;;;;;19.34;69.25;100038.63;5133997;27;20251;-71
2023/06/18 04:34:28;;;;;;;17.98;16.17;;;;;;;19.34;69.27;100043.84;5119960;27;20196;-72
2023/06/18 04:36:56;;;;;;;18.63;16.80;;;;;;;19.37;69.19;100046.28;5134141;27;20560;-70
2023/06/18 04:39:24;;;;;;;19.05;17.05;;;;;;;19.39;68.98;100042.69;5133440;27;20241;-71
2023/06/18 04:41:52;;;;;;;18.23;16.40;;;;;;;19.42;68.72;100057.38;5137554;27;20669;-71
2023/06/18 04:44:20;;;;;;;19.10;17.20;;;;;;;19.39;68.91;100055.75;5133840;27;20203;-71
2023/06/18 04:46:48;;;;;;;19.17;17.27;;;;;;;19.38;69.04;100063.69;5119754;27;20608;-72
2023/06/18 04:49:16;;;;;;;17.80;16.10;;;;;;;19.37;68.88;100059.34;5133237;27;20263;-71
2023/06/18 04:51:45;;;;;;;17.88;16.08;;;;;;;19.39;69.30;100071.44;5133453;27;20187;-72
2023/06/18 04:54:13;;;;;;;18.25;16.35;;;;;;;19.39;69.05;100066.22;5133907;27;20609;-70
2023/06/18 04:56:41;;;;;;;18.05;16.20;;;;;;;19.36;68.87;100068.97;5132615;27;20203;-71
2023/06/18 04:59:09;;;;;;;19.38;17.58;;;;;;;19.34;68.96;100070.81;5133062;27;20268;-71
2023/06/18 05:01:37;;;;;;;19.85;17.85;;;;;;;19.34;68.84;100069.97;5133367;27;20237;-71
2023/06/18 05:04:05;;;;;;;19.65;17.73;;;;;;;19.34;68.71;100068.22;5133758;27;20200;-71
2023/06/18 05:06:33;;;;;;;19.55;17.55;;;;;;;19.37;68.66;100069.81;5133197;27;20203;-71
2023/06/18 05:09:03;;;;;;;19.02;17.02;;;;;;;19.42;68.52;100078.28;5133033;27;20195;-72
2023/06/18 05:11:32;;;;;;;19.35;17.45;;;;;;;19.48;68.67;100075.41;5133460;27;20231;-73
2023/06/18 05:14:00;;;;;;;20.15;18.15;;;;;;;19.53;68.34;100073.41;5133260;27;20208;-72
2023/06/18 05:16:28;;;;;;;19.08;17.17;;;;;;;19.59;68.16;100070.50;5135256;27;20210;-71
2023/06/18 05:18:56;;;;;;;19.02;16.75;;;;;;;19.68;67.84;100070.06;5132662;27;20211;-72
2023/06/18 05:21:25;;;;;;;18.10;16.40;;;;;;;19.77;67.65;100068.75;5133118;27;20245;-72
2023/06/18 05:23:53;;;;;;;19.65;17.75;;;;;;;19.84;67.09;100070.16;5132756;27;20203;-72
2023/06/18 05:26:23;;;;;;;20.20;18.20;;;;;;;19.92;67.06;100062.78;5131797;27;20206;-71
2023/06/18 05:28:51;;;;;;;18.83;17.00;;;;;;;20.05;66.73;100072.63;5132289;27;20239;-71
2023/06/18 05:31:19;;;;;;;18.48;16.67;;;;;;;20.14;66.43;100073.03;5135152;27;20671;-71
2023/06/18 05:33:46;;;;;;;18.75;16.75;;;;;;;20.20;66.19;100072.69;5133978;27;20213;-74
2023/06/18 05:36:15;;;;;;;19.27;17.33;;;;;;;20.31;65.64;100079.16;5130349;27;20203;-71
2023/06/18 05:38:42;;;;;;;18.90;17.10;;;;;;;20.36;65.31;100077.13;5130010;27;20297;-71
2023/06/18 05:41:10;;;;;;;18.80;17.00;;;;;;;20.42;65.07;100077.69;5132553;27;20207;-72
2023/06/18 05:43:40;;;;;;;19.15;17.35;;;;;;;20.49;64.65;100088.69;5132719;27;20195;-72
2023/06/18 05:46:08;;;;;;;18.77;16.98;;;;;;;20.54;64.84;100081.44;5131347;27;20207;-72
2023/06/18 05:48:36;;;;;;;18.65;16.75;;;;;;;20.65;64.71;100080.91;5126937;27;20286;-72
2023/06/18 05:51:04;;;;;;;17.90;16.10;;;;;;;20.74;64.58;100081.25;5130837;27;20567;-74
2023/06/18 05:53:32;;;;;;;17.38;15.77;;;;;;;20.81;64.17;100087.03;5132112;27;20206;-70
2023/06/18 05:56:00;;;;;;;17.88;16.25;;;;;;;20.79;64.09;100075.78;5132362;27;20207;-70
2023/06/18 05:58:28;;;;;;;18.15;16.25;;;;;;;20.75;64.25;100089.97;5130896;27;20272;-72
2023/06/18 06:00:57;;;;;;;17.65;15.77;;;;;;;20.69;64.51;100088.53;5131670;27;20234;-71
2023/06/18 06:03:26;;;;;;;18.27;16.35;;;;;;;20.68;64.39;100094.66;5132349;27;20252;-70
2023/06/18 06:05:54;;;;;;;17.00;15.30;;;;;;;20.68;64.49;100091.22;5132236;27;20210;-71
2023/06/18 06:08:22;;;;;;;15.88;14.48;;;;;;;20.65;64.06;100094.81;5135417;27;20263;-71
2023/06/18 06:10:51;;;;;;;16.23;14.52;;;;;;;20.64;64.22;100095.75;5132111;27;20199;-70
2023/06/18 06:13:19;;;;;;;16.95;15.35;;;;;;;20.63;64.21;100101.94;5132489;27;20611;-72
2023/06/18 06:15:47;;;;;;;17.05;15.48;;;;;;;20.67;64.21;100108.69;5132387;27;20662;-71
2023/06/18 06:18:17;;;;;;;17.58;15.80;;;;;;;20.72;64.38;100095.34;5128969;27;20327;-71
2023/06/18 06:20:45;;;;;;;17.38;15.77;;;;;;;20.82;64.20;100104.44;5132092;27;20643;-72
2023/06/18 06:23:13;;;;;;;16.85;15.25;;;;;;;20.96;63.56;100114.19;5132171;27;20211;-72
2023/06/18 06:25:41;;;;;;;16.92;15.23;;;;;;;21.06;63.13;100114.50;5130766;27;20666;-72
2023/06/18 06:28:10;;;;;;;16.15;14.65;;;;;;;21.12;62.84;100116.81;5131831;27;20235;-71
2023/06/18 06:30:38;;;;;;;15.98;14.48;;;;;;;21.13;62.91;100116.72;5132108;28;20568;-71
2023/06/18 06:33:06;;;;;;;16.55;15.02;;;;;;;21.18;62.69;100127.81;5134272;27;20587;-72
2023/06/18 06:35:36;;;;;;;15.50;14.10;;;;;;;21.16;62.86;100120.94;5136679;27;20545;-72
2023/06/18 06:38:04;;;;;;;15.90;14.38;;;;;;;21.12;62.52;100119.44;5131865;28;20248;-73
2023/06/18 06:40:32;;;;;;;15.60;14.00;;;;;;;21.09;62.26;100125.66;5132251;28;20625;-72
2023/06/18 06:43:00;;;;;;;15.65;14.02;;;;;;;21.10;62.79;100121.28;5131716;28;20250;-71
2023/06/18 06:45:28;;;;;;;16.45;14.75;;;;;;;21.10;62.72;100116.91;5135812;27;20206;-71
2023/06/18 06:47:56;;;;;;;17.45;14.85;;;;;;;21.14;62.34;100123.66;5135549;27;20214;-71
2023/06/18 06:50:25;;;;;;;16.13;14.50;;;;;;;21.19;62.62;100111.16;5140581;27;20588;-72
2023/06/18 06:52:54;;;;;;;15.73;14.23;;;;;;;21.31;61.85;100114.03;5136083;27;20211;-72
2023/06/18 06:55:22;;;;;;;15.75;14.05;;;;;;;21.36;61.95;100119.91;5136521;27;20264;-68
2023/06/18 06:57:50;;;;;;;15.55;13.93;;;;;;;21.41;61.79;100115.25;5128220;27;20208;-69
2023/06/18 07:00:18;;;;;;;15.65;14.18;;;;;;;21.40;61.82;100124.06;5129977;27;20211;-69
2023/06/18 07:02:47;;;;;;;16.50;14.77;;;;;;;21.39;61.75;100117.09;5134546;27;20646;-67
2023/06/18 07:05:15;;;;;;;16.52;14.95;;;;;;;21.35;61.51;100120.81;5135905;27;20195;-67
2023/06/18 07:07:46;;;;;;;16.30;14.60;;;;;;;21.41;62.06;100128.34;5135708;27;20312;-68
2023/06/18 07:10:16;;;;;;;15.02;13.43;;;;;;;21.52;61.86;100128.59;5135737;27;20205;-68
2023/06/18 07:12:44;;;;;;;15.85;14.25;;;;;;;21.62;61.58;100127.16;5130061;27;20291;-69
2023/06/18 07:15:12;;;;;;;14.77;13.38;;;;;;;21.76;61.44;100125.53;5135839;27;20211;-68
2023/06/18 07:17:40;;;;;;;16.17;14.57;;;;;;;21.92;60.66;100126.38;5141467;27;20199;-69
2023/06/18 07:20:09;;;;;;;15.45;13.95;;;;;;;22.03;60.25;100123.13;5136991;27;20247;-67
2023/06/18 07:22:37;;;;;;;15.93;14.52;;;;;;;22.20;60.07;100123.00;5135337;27;20246;-63
2023/06/18 07:25:06;;;;;;;16.23;14.63;;;;;;;22.34;59.66;100127.44;5135562;27;20640;-64
2023/06/18 07:27:37;;;;;;;16.27;14.77;;;;;;;22.45;59.23;100125.03;5134787;27;20237;-68
2023/06/18 07:30:07;;;;;;;16.80;15.20;;;;;;;22.61;59.21;100125.81;5135723;27;20277;-64
2023/06/18 07:32:35;;;;;;;15.15;13.65;;;;;;;22.78;58.61;100134.44;5135256;27;20621;-64
2023/06/18 07:35:03;;;;;;;14.85;13.38;;;;;;;22.72;58.16;100133.06;5140463;27;20222;-64
2023/06/18 07:37:31;;;;;;;14.50;13.13;;;;;;;22.68;57.86;100136.78;5137148;27;20203;-63
2023/06/18 07:40:00;;;;;;;13.10;11.85;;;;;;;22.82;57.82;100141.19;5120614;27;20264;-63
2023/06/18 07:42:28;;;;;;;11.77;10.68;;;;;;;23.01;57.16;100147.03;5133887;27;20207;-64
2023/06/18 07:44:57;;;;;;;11.73;10.57;;;;;;;23.13;56.53;100141.06;5135868;27;20199;-68
2023/06/18 07:47:25;;;;;;;10.52;9.63;;;;;;;23.30;56.24;100139.13;5134610;27;20203;-66
2023/06/18 07:49:53;;;;;;;10.90;9.75;;;;;;;23.44;55.78;100136.47;5145643;27;20235;-67
2023/06/18 07:52:22;;;;;;;11.23;10.23;;;;;;;23.72;54.98;100134.75;5134846;27;20237;-67
2023/06/18 07:54:50;;;;;;;11.98;10.73;;;;;;;24.00;54.01;100139.03;5133320;27;20211;-66
2023/06/18 07:57:18;;;;;;;13.38;11.30;;;;;;;23.99;53.70;100129.47;5133791;27;20303;-69
2023/06/18 07:59:47;;;;;;;12.50;11.30;;;;;;;23.97;53.51;100137.47;5134552;27;20210;-66
2023/06/18 08:02:16;;;;;;;12.40;10.68;;;;;;;23.90;53.35;100138.81;5140288;27;20218;-66
2023/06/18 08:04:45;;;;;;;10.77;9.77;;;;;;;23.82;53.09;100136.69;5140950;27;20207;-68
2023/06/18 08:07:13;;;;;;;10.77;9.77;;;;;;;23.83;53.38;100151.53;5131133;27;20548;-68
2023/06/18 08:09:41;;;;;;;10.52;9.52;;;;;;;23.91;53.11;100145.78;5134208;27;20682;-67
2023/06/18 08:12:11;;;;;;;9.93;9.02;;;;;;;24.09;52.24;100157.72;5134913;27;20294;-62
2023/06/18 08:14:39;;;;;;;10.18;9.27;;;;;;;24.18;51.88;100152.78;5132800;27;20222;-65
2023/06/18 08:17:07;;;;;;;10.88;9.88;;;;;;;24.17;52.27;100161.63;5133773;27;20191;-64
2023/06/18 08:19:36;;;;;;;9.55;8.65;;;;;;;24.01;52.15;100162.66;5134280;27;20207;-63
2023/06/18 08:22:06;;;;;;;10.63;9.52;;;;;;;23.89;52.63;100158.16;5134078;27;20219;-64
2023/06/18 08:24:34;;;;;;;10.38;9.48;;;;;;;23.78;52.82;100155.41;5134613;27;20684;-66
2023/06/18 08:27:02;;;;;;;10.63;9.55;;;;;;;23.67;53.29;100163.13;5129318;27;20710;-68
2023/06/18 08:29:30;;;;;;;9.90;9.00;;;;;;;23.63;53.34;100155.41;5134372;27;20210;-68
2023/06/18 08:32:00;;;;;;;10.60;9.60;;;;;;;23.67;53.27;100148.19;5134257;27;20203;-66
2023/06/18 08:34:28;;;;;;;9.85;8.95;;;;;;;23.78;52.86;100152.75;5120242;27;20203;-65
2023/06/18 08:36:58;;;;;;;9.32;8.52;;;;;;;23.92;52.94;100155.34;5132210;27;20646;-64
2023/06/18 08:39:26;;;;;;;9.45;8.65;;;;;;;23.99;52.16;100153.16;5133897;27;20200;-66
2023/06/18 08:41:59;;;;;;;9.38;8.57;;;;;;;24.05;52.09;100163.31;5133929;27;20207;-67
2023/06/18 08:44:28;;;;;;;9.55;8.57;;;;;;;24.06;52.10;100150.03;5130203;27;20543;-66
2023/06/18 08:47:00;;;;;;;9.10;8.27;;;;;;;23.93;52.02;100149.13;5133497;27;20205;-67
2023/06/18 08:49:28;;;;;;;9.75;8.48;;;;;;;23.86;52.51;100147.88;5134039;27;20572;-69
2023/06/18 08:52:00;;;;;;;8.80;8.05;;;;;;;23.73;52.78;100142.53;5133863;27;20213;-66
2023/06/18 08:54:33;;;;;;;9.90;9.10;;;;;;;23.57;53.23;100137.41;5133637;27;20227;-67
2023/06/18 08:57:08;;;;;;;8.18;7.38;;;;;;;23.51;52.98;100136.94;5133225;27;20256;-67
2023/06/18 08:59:37;;;;;;;8.65;7.85;;;;;;;23.44;52.61;100146.16;5133832;27;20594;-66
2023/06/18 09:02:06;;;;;;;8.88;8.07;;;;;;;23.32;52.65;100158.31;5133419;27;20214;-67
2023/06/18 09:04:35;;;;;;;9.52;8.73;;;;;;;23.21;52.91;100166.84;5136326;27;20534;-67
2023/06/18 09:07:07;;;;;;;8.98;8.18;;;;;;;23.10;53.64;100167.53;5133315;27;20218;-66
2023/06/18 09:09:37;;;;;;;9.65;8.68;;;;;;;23.00;54.20;100158.50;5133087;27;20680;-66
2023/06/18 09:12:06;;;;;;;11.55;8.85;;;;;;;22.98;55.37;100152.50;5133261;27;20199;-66
2023/06/18 09:14:34;;;;;;;9.40;8.60;;;;;;;22.89;55.11;100145.16;5133329;27;20239;-67
2023/06/18 09:17:02;;;;;;;8.95;8.15;;;;;;;22.72;55.38;100147.94;5131645;27;20195;-67
2023/06/18 09:19:33;;;;;;;8.80;8.10;;;;;;;22.57;55.84;100140.06;5129694;27;20210;-67
2023/06/18 09:22:14;;;;;;;8.20;7.50;;;;;;;22.45;56.16;100150.44;5132353;27;20207;-67
2023/06/18 09:24:42;;;;;;;9.85;8.85;;;;;;;22.32;57.24;100147.72;5133123;27;20621;-71
2023/06/18 09:27:11;;;;;;;10.35;9.30;;;;;;;22.29;59.14;100147.88;5132236;27;20199;-68
2023/06/18 09:29:41;;;;;;;11.18;9.68;;;;;;;22.23;60.37;100145.59;5132982;27;20199;-68
2023/06/18 09:32:10;;;;;;;10.10;8.73;;;;;;;22.08;60.14;100148.16;5133023;27;20586;-66
2023/06/18 09:34:42;;;;;;;11.75;10.55;;;;;;;21.87;61.74;100154.63;5130359;27;20318;-67
2023/06/18 09:37:16;;;;;;;11.77;10.68;;;;;;;21.65;63.97;100161.09;5132624;27;20290;-71
2023/06/18 09:39:44;;;;;;;12.20;11.00;;;;;;;21.38;65.44;100162.59;5132732;27;20252;-72
2023/06/18 09:42:13;;;;;;;12.95;10.80;;;;;;;21.20;66.42;100162.63;5131851;27;20561;-72
2023/06/18 09:44:45;;;;;;;11.55;10.35;;;;;;;21.08;66.40;100171.16;5132029;27;20658;-72
2023/06/18 09:47:15;;;;;;;11.88;10.68;;;;;;;20.96;66.51;100163.94;5132741;27;20650;-71
2023/06/18 09:49:45;;;;;;;12.32;10.98;;;;;;;20.86;66.59;100170.59;5132687;27;20206;-72
2023/06/18 09:52:15;;;;;;;12.82;11.45;;;;;;;20.71;67.65;100169.59;5130533;27;20195;-71
2023/06/18 09:54:44;;;;;;;10.63;9.23;;;;;;;20.49;66.50;100167.22;5132144;27;20222;-71
2023/06/18 09:57:13;;;;;;;10.45;9.38;;;;;;;20.25;67.17;100170.16;5129189;27;20210;-72
2023/06/18 09:59:41;;;;;;;9.90;8.93;;;;;;;20.08;67.28;100171.88;5132532;27;20196;-73
2023/06/18 10:02:13;;;;;;;10.02;9.02;;;;;;;19.93;67.67;100170.88;5132275;27;20218;-72
2023/06/18 10:04:42;;;;;;;13.68;9.45;;;;;;;19.89;67.81;100169.31;5131646;27;20222;-71
2023/06/18 10:07:15;;;;;;;10.18;9.27;;;;;;;19.85;68.28;100170.41;5131939;27;20203;-65
2023/06/18 10:09:47;;;;;;;11.02;10.07;;;;;;;19.86;68.89;100175.53;5132405;27;20269;-63
2023/06/18 10:12:17;;;;;;;11.25;10.15;;;;;;;19.89;69.43;100177.16;5129194;27;20191;-65
2023/06/18 10:14:47;;;;;;;11.27;10.18;;;;;;;19.95;70.03;100171.63;5131296;27;20231;-63
2023/06/18 10:17:23;;;;;;;11.82;10.32;;;;;;;20.00;70.27;100164.41;5131787;27;20195;-65
2023/06/18 10:19:58;;;;;;;10.88;9.88;;;;;;;20.07;70.18;100159.72;5131966;27;20207;-65
2023/06/18 10:22:30;;;;;;;11.90;10.55;;;;;;;20.10;70.12;100144.72;5129890;27;20214;-64
2023/06/18 10:25:03;;;;;;;12.82;11.55;;;;;;;20.15;70.03;100140.13;5124005;27;20248;-65
2023/06/18 10:27:32;;;;;;;13.57;12.30;;;;;;;20.11;70.27;100141.19;5130921;27;20349;-64
2023/06/18 10:30:01;;;;;;;13.52;11.68;;;;;;;20.14;70.86;100146.28;5132503;27;20272;-63
2023/06/18 10:32:30;;;;;;;13.00;11.80;;;;;;;20.20;71.34;100155.56;5131688;27;20197;-64
2023/06/18 10:35:00;;;;;;;13.32;11.98;;;;;;;20.23;71.13;100158.03;5131851;28;20203;-63
2023/06/18 10:37:30;;;;;;;13.52;12.23;;;;;;;20.24;71.15;100157.97;5131754;28;20204;-63
2023/06/18 10:40:00;;;;;;;13.40;12.20;;;;;;;20.24;71.31;100168.44;5131965;28;20219;-64
2023/06/18 10:42:31;;;;;;;13.70;12.38;;;;;;;20.20;70.67;100166.88;5131063;27;20219;-63
2023/06/18 10:45:09;;;;;;;12.60;11.30;;;;;;;20.12;69.97;100176.88;5132560;27;20215;-63
2023/06/18 10:47:37;;;;;;;13.02;11.35;;;;;;;20.04;69.86;100163.34;5131634;28;20249;-66
2023/06/18 10:50:13;;;;;;;14.27;12.40;;;;;;;20.03;70.63;100164.28;5131594;28;20199;-62
2023/06/18 10:52:43;;;;;;;13.30;12.00;;;;;;;20.02;70.55;100173.00;5131165;27;20230;-63
2023/06/18 10:55:27;;;;;;;13.27;11.98;;;;;;;19.97;71.00;100164.56;5131322;28;20203;-63
2023/06/18 10:58:02;;;;;;;13.70;12.30;;;;;;;20.10;71.78;100183.94;5129330;27;20247;-66
2023/06/18 11:00:35;;;;;;;14.68;13.15;;;;;;;20.17;71.68;100177.50;5131479;28;20191;-63
2023/06/18 11:03:05;;;;;;;13.82;12.40;;;;;;;20.17;71.28;100177.50;5131668;28;20215;-67
2023/06/18 11:05:48;;;;;;;12.65;11.48;;;;;;;20.21;70.70;100179.06;5117901;28;20199;-64
2023/06/18 11:08:18;;;;;;;12.85;11.50;;;;;;;20.23;70.23;100182.44;5132822;27;20653;-72
2023/06/18 11:10:50;;;;;;;13.18;11.90;;;;;;;20.28;70.25;100196.13;5131601;28;20264;-72
2023/06/18 11:13:18;;;;;;;14.50;13.05;;;;;;;20.34;70.63;100199.38;5131490;28;20203;-72
2023/06/18 11:15:54;;;;;;;12.63;11.20;;;;;;;20.34;69.85;100196.78;5133579;27;20560;-72
2023/06/18 11:18:25;;;;;;;13.95;12.25;;;;;;;20.25;69.53;100196.31;5130245;27;20549;-72
2023/06/18 11:20:54;;;;;;;12.85;11.55;;;;;;;20.19;69.46;100190.53;5130343;27;20211;-71
2023/06/18 11:23:23;;;;;;;13.93;12.27;;;;;;;20.17;70.02;100184.50;5131410;27;20256;-71